Portada
METAR-TAF:

METAR-TAF

Aeropuertos :

Kuala Lumpur, Malasia

Aeropuerto Internacional de Kuala Lumpur

latitud: 02-44N, longitud: 101-42E, altitud: 21 m

Observación

El informe se hizo hace 47 minutos, a las 20:00 UTC
Viento 2 kt con dirección variable
Temperatura 26°C
Humedad 89%
Presión 1008 hPa
Visibilidad: 7000 m
Escasas nubes a una altura de 1700 ft, Cumulonimbus.
Cielo nuboso a una altura de 28000 ft

METAR: WMKK 242000Z VRB02KT 7000 FEW017CB BKN280 26/24 Q1008 NOSIG

Hora: 04:47 (20:47 UTC)

Pronóstico

El informe se hizo hace 3 horas y 47 minutos, a las 17:00 UTC
Pronóstico válido del 24 a las 18 UTC al 26 a las 00 UTC
Viento 5 kt del norte
Visibilidad: 8000 m
Escasas nubes a una altura de 1700 ft, Cumulonimbus.
Cielo nuboso a una altura de 28000 ft

TAF: WMKK 241700Z 2418/2600 01005KT 8000 FEW017CB BKN280

Observaciones y pronósticos meteorológicos de más de 4000 aeropuertos (mensajes METAR y TAF).

Los puntos amarillos y rojos representan las estaciones disponibles.

Ponga el ratón en el punto deseado para ver el nombre de la estación.

Haga clic para ver las observaciones y los pronósticos meteorológicos.

Para cambiar el mapa : haga clic en los botones verdes con una cruz de color negro para hacer un zoom, en el botón verde con un guión para alejar o en las flechas verdes para mapas adyacentes.


METAR-TAF: